Hlavní strana
METAR-TAF:

METAR-TAF

Letiště :

Clemson, Jižní Karolína, Spojené státy americké

zeměpisná šířka: 34-40-20N, zeměpisná délka: 082-52-53W, výška: 272 m

Aktuální stav počasí

Zpráva byla vytvořena před 1 hodinou a 0 minutami, v 16:54 UTC
Severovýchodní vítr 5 kt
Teplota 9°C
Vlhkost vzduchu 71%
Tlak 1021 hPa
Viditelnost: 16.1 km
Skoro jasno ve výšce 7000 ft
Zataženo ve výšce 10000 ft

METAR: KCEU 151654Z AUTO 05005KT 10SM FEW070 OVC100 09/04 A3016 RMK AO2 RAE42 SLP215 P0001 T00890044

Čas: 12:54 (17:54 UTC)


TAF: chybějící

Stav a předpovědi počasí z více než 4 000 letišť (zprávy METAR a TAF).

Červené a žluté tečky na mapě představují dostupné meteorologické stanice.

Když kurzor umístíte na tečku, zobrazí se název stanice.

Pak kliknutím zobrazíte stav a předpověď počasí.

Chcete-li změnit mapu, kliknutím na zelené tlačítko se znaménkem +mapu přiblížíte, kliknutím na zelené tlačítko se znaménkem – mapu oddálíte a kliknutím na zelené šipky přejdete na sousední mapy.


METAR-TAF: